Cape Hatteras — WRZ8934 — position and weather

sailwx.info

Track history (hours):
 
Tides and Currents Weather Stations Pressure Air Temp Water Temp Dewpoint Dewpoint Depression Visibility Wind Speed Wind Dir Waves Ship Positions

Oceanographic research ship Cape Hatteras (USA)

Detailed information on ship capabilities available from University of Delaware's Ocean Information Center.

Owner: DUKE UNIVERSITY, BEAUFORT, NC. More information available from US FCC via Universal Licensing System and Coast Guard Vessel Documentation Center.

Last reported at 2017-Oct-17 01:01 UTC. Time now 2017-Oct-19 16:36 UTC.
Position N 34°33' W 076°51'.

Length 41 m; draft 3 m.

Type: Other ship. MMSI: 366929330.

Date/timePositionNaut miles runAvg speedWind from/ knotsBaromVisibWave heightAir tempDewpointWater temp
2017-Oct-17 01:01N 34°33' W 076°51'010.3
2017-Oct-17 01:00N 34°33' W 076°51'510.3
2017-Oct-17 00:30N 34°36' W 076°46'510.2
2017-Oct-17 00:00N 34°39' W 076°40'3 6.3
2017-Oct-16 23:30N 34°39' W 076°37'0 0.7
2017-Oct-16 23:00N 34°39' W 076°36'2 3.7
2017-Oct-16 22:30N 34°40' W 076°39'1 2.3
2017-Oct-16 22:01N 34°39' W 076°38'1 2.7
2017-Oct-16 21:30N 34°39' W 076°36'1 2.6
2017-Oct-16 20:59N 34°38' W 076°35'1 2.9
2017-Oct-16 20:30N 34°38' W 076°36'1 2.6
2017-Oct-16 20:01N 34°39' W 076°38'2 3.9
2017-Oct-16 19:30N 34°39' W 076°40'4 7.4
2017-Oct-16 19:00N 34°43' W 076°41'0 0.8
2017-Oct-16 18:29N 34°43' W 076°40'0 0.0
2017-Oct-16 17:59N 34°43' W 076°40'0 0.0
2017-Oct-16 17:29N 34°43' W 076°40'0 0.0
2017-Oct-16 16:59N 34°43' W 076°40'0 0.0
2017-Oct-16 16:26N 34°43' W 076°40'0 0.0
2017-Oct-16 15:59N 34°43' W 076°40'0 0.0
2017-Oct-16 15:29N 34°43' W 076°40'0 0.0
2017-Oct-16 14:59N 34°43' W 076°40'0 0.0
2017-Oct-16 13:59N 34°43' W 076°40'0 0.0
2017-Oct-16 13:29N 34°43' W 076°40'0 0.0
2017-Oct-16 12:59N 34°43' W 076°40'0 0.0
2017-Oct-16 12:29N 34°43' W 076°40'0 0.0
2017-Oct-16 11:59N 34°43' W 076°40'0 0.0
2017-Oct-16 11:26N 34°43' W 076°40'0 0.0
2017-Oct-16 10:59N 34°43' W 076°40'0 0.0
2017-Oct-16 10:29N 34°43' W 076°40'0 0.0
2017-Oct-16 09:59N 34°43' W 076°40'0 0.0
2017-Oct-16 09:23N 34°43' W 076°40'0 0.0
2017-Oct-16 08:59N 34°43' W 076°40'0 0.0
2017-Oct-16 08:29N 34°43' W 076°40'0 0.0
2017-Oct-16 07:59N 34°43' W 076°40'0 0.0
2017-Oct-16 07:29N 34°43' W 076°40'0 0.0
2017-Oct-16 06:59N 34°43' W 076°40'0 0.0
2017-Oct-16 06:29N 34°43' W 076°40'0 0.0
2017-Oct-16 05:59N 34°43' W 076°40'0 0.0
2017-Oct-16 05:26N 34°43' W 076°40'0 0.0
2017-Oct-16 04:59N 34°43' W 076°40'0 0.0
2017-Oct-16 04:29N 34°43' W 076°40'0 0.0
2017-Oct-16 03:56N 34°43' W 076°40'0 0.0
2017-Oct-16 03:29N 34°43' W 076°40'0 0.0
2017-Oct-16 02:59N 34°43' W 076°40'0 0.0
2017-Oct-16 02:29N 34°43' W 076°40'0 0.0
2017-Oct-16 01:59N 34°43' W 076°40'0 0.0
2017-Oct-16 01:29N 34°43' W 076°40'0 0.0
2017-Oct-16 00:59N 34°43' W 076°40'0 0.0
2017-Oct-16 00:29N 34°43' W 076°40'0 0.0
2017-Oct-15 23:59N 34°43' W 076°40'0 0.0
2017-Oct-15 23:29N 34°43' W 076°40'0 0.0
2017-Oct-15 22:56N 34°43' W 076°40'0 0.0
2017-Oct-15 22:29N 34°43' W 076°40'0 0.0
2017-Oct-15 21:59N 34°43' W 076°40'0 0.0
2017-Oct-15 21:31N 34°43' W 076°40'0 0.2
2017-Oct-15 21:00N 34°43' W 076°40'3 6.5
2017-Oct-15 20:31N 34°40' W 076°40'2 4.0
2017-Oct-15 20:01N 34°39' W 076°38'3 5.3
2017-Oct-15 19:30N 34°38' W 076°35'0 0.5
2017-Oct-15 19:01N 34°38' W 076°35'0 0.6
2017-Oct-15 18:31N 34°38' W 076°35'1 3.0
2017-Oct-15 18:01N 34°38' W 076°36'1 2.9
2017-Oct-15 17:31N 34°39' W 076°38'1 1.5
2017-Oct-15 17:01N 34°39' W 076°39'2 3.4
2017-Oct-15 16:30N 34°38' W 076°38'3 6.7
2017-Oct-15 16:01N 34°35' W 076°36'4 7.2
2017-Oct-15 15:30N 34°31' W 076°34'146 2.9
2017-Oct-13 12:58N 36°57' W 076°20'510.4
2017-Oct-13 12:31N 36°52' W 076°20'2 3.3
2017-Oct-13 11:58N 36°51' W 076°18'0 0.0
2017-Oct-13 11:28N 36°51' W 076°18'0 0.0
2017-Oct-13 10:58N 36°51' W 076°18'0 0.0
2017-Oct-13 10:28N 36°51' W 076°18'0 0.0
2017-Oct-13 09:58N 36°51' W 076°18'0 0.0
2017-Oct-13 09:28N 36°51' W 076°18'0 0.0
2017-Oct-13 08:58N 36°51' W 076°18'0 0.0
2017-Oct-13 08:28N 36°51' W 076°18'0 0.0
2017-Oct-13 07:58N 36°51' W 076°18'0 0.0
2017-Oct-13 07:28N 36°51' W 076°18'0 0.0
2017-Oct-13 06:55N 36°51' W 076°18'0 0.0
2017-Oct-13 06:28N 36°51' W 076°18'0 0.0
2017-Oct-13 05:58N 36°51' W 076°18'0 0.0
2017-Oct-13 05:25N 36°51' W 076°18'0 0.0
2017-Oct-13 04:58N 36°51' W 076°18'0 0.0
2017-Oct-13 04:28N 36°51' W 076°18'0 0.0
2017-Oct-13 03:58N 36°51' W 076°18'0 0.0
2017-Oct-13 03:28N 36°51' W 076°18'0 0.0
2017-Oct-13 02:58N 36°51' W 076°18'0 0.0
2017-Oct-13 02:28N 36°51' W 076°18'0 0.0
2017-Oct-13 01:58N 36°51' W 076°18'0 0.0
2017-Oct-13 01:28N 36°51' W 076°18'0 0.0
2017-Oct-13 00:58N 36°51' W 076°18'0 0.0
2017-Oct-13 00:28N 36°51' W 076°18'0 0.0
2017-Oct-12 23:55N 36°51' W 076°18'0 0.0
2017-Oct-12 23:28N 36°51' W 076°18'0 0.0
2017-Oct-12 22:58N 36°51' W 076°18'0 0.0
2017-Oct-12 22:28N 36°51' W 076°18'0 0.0
2017-Oct-12 21:58N 36°51' W 076°18'0 0.0
2017-Oct-12 21:28N 36°51' W 076°18'0 0.0
2017-Oct-12 20:58N 36°51' W 076°18'0 0.0
2017-Oct-12 20:28N 36°51' W 076°18'0 0.0
2017-Oct-12 19:58N 36°51' W 076°18'0 0.0
2017-Oct-12 19:28N 36°51' W 076°18'0 0.0
2017-Oct-12 18:58N 36°51' W 076°18'0 0.0
2017-Oct-12 18:28N 36°51' W 076°18'0 0.0
2017-Oct-12 17:58N 36°51' W 076°18'0 0.0
2017-Oct-12 17:28N 36°51' W 076°18'0 0.0
2017-Oct-12 16:58N 36°51' W 076°18'0 0.0
2017-Oct-12 16:28N 36°51' W 076°18'0 0.0
2017-Oct-12 15:58N 36°51' W 076°18'0 0.0
2017-Oct-12 15:28N 36°51' W 076°18'0 0.0
2017-Oct-12 14:58N 36°51' W 076°18'0 0.0
2017-Oct-12 14:25N 36°51' W 076°18'0 0.0
2017-Oct-12 13:55N 36°51' W 076°18'0 0.0
2017-Oct-12 13:28N 36°51' W 076°18'0 0.0
2017-Oct-12 12:55N 36°51' W 076°18'0 0.0
2017-Oct-12 12:25N 36°51' W 076°18'0 0.0
2017-Oct-12 12:00N 36°51' W 076°18'1 2.8
2017-Oct-12 11:31N 36°52' W 076°19'  
Track history (hours):
 
Tides and Currents Weather Stations Pressure Air Temp Water Temp Dewpoint Dewpoint Depression Visibility Wind Speed Wind Dir Waves Ship Positions

Oceanographic research ship Cape Hatteras (USA)

Detailed information on ship capabilities available from University of Delaware's Ocean Information Center.

Owner: DUKE UNIVERSITY, BEAUFORT, NC. More information available from US FCC via Universal Licensing System and Coast Guard Vessel Documentation Center.

Last reported at 2017-Oct-17 01:01 UTC. Time now 2017-Oct-19 16:36 UTC.
Position N 34°33' W 076°51'.

Length 41 m; draft 3 m.

Type: Other ship. MMSI: 366929330.

Date/timePositionNaut miles runAvg speedWind from/ knotsBaromVisibWave heightAir tempDewpointWater temp
2017-Oct-17 01:01N 34°33' W 076°51'010.3
2017-Oct-17 01:00N 34°33' W 076°51'510.3
2017-Oct-17 00:30N 34°36' W 076°46'510.2
2017-Oct-17 00:00N 34°39' W 076°40'3 6.3
2017-Oct-16 23:30N 34°39' W 076°37'0 0.7
2017-Oct-16 23:00N 34°39' W 076°36'2 3.7
2017-Oct-16 22:30N 34°40' W 076°39'1 2.3
2017-Oct-16 22:01N 34°39' W 076°38'1 2.7
2017-Oct-16 21:30N 34°39' W 076°36'1 2.6
2017-Oct-16 20:59N 34°38' W 076°35'1 2.9
2017-Oct-16 20:30N 34°38' W 076°36'1 2.6
2017-Oct-16 20:01N 34°39' W 076°38'2 3.9
2017-Oct-16 19:30N 34°39' W 076°40'4 7.4
2017-Oct-16 19:00N 34°43' W 076°41'0 0.8
2017-Oct-16 18:29N 34°43' W 076°40'0 0.0
2017-Oct-16 17:59N 34°43' W 076°40'0 0.0
2017-Oct-16 17:29N 34°43' W 076°40'0 0.0
2017-Oct-16 16:59N 34°43' W 076°40'0 0.0
2017-Oct-16 16:26N 34°43' W 076°40'0 0.0
2017-Oct-16 15:59N 34°43' W 076°40'0 0.0
2017-Oct-16 15:29N 34°43' W 076°40'0 0.0
2017-Oct-16 14:59N 34°43' W 076°40'0 0.0
2017-Oct-16 13:59N 34°43' W 076°40'0 0.0
2017-Oct-16 13:29N 34°43' W 076°40'0 0.0
2017-Oct-16 12:59N 34°43' W 076°40'0 0.0
2017-Oct-16 12:29N 34°43' W 076°40'0 0.0
2017-Oct-16 11:59N 34°43' W 076°40'0 0.0
2017-Oct-16 11:26N 34°43' W 076°40'0 0.0
2017-Oct-16 10:59N 34°43' W 076°40'0 0.0
2017-Oct-16 10:29N 34°43' W 076°40'0 0.0
2017-Oct-16 09:59N 34°43' W 076°40'0 0.0
2017-Oct-16 09:23N 34°43' W 076°40'0 0.0
2017-Oct-16 08:59N 34°43' W 076°40'0 0.0
2017-Oct-16 08:29N 34°43' W 076°40'0 0.0
2017-Oct-16 07:59N 34°43' W 076°40'0 0.0
2017-Oct-16 07:29N 34°43' W 076°40'0 0.0
2017-Oct-16 06:59N 34°43' W 076°40'0 0.0
2017-Oct-16 06:29N 34°43' W 076°40'0 0.0
2017-Oct-16 05:59N 34°43' W 076°40'0 0.0
2017-Oct-16 05:26N 34°43' W 076°40'0 0.0
2017-Oct-16 04:59N 34°43' W 076°40'0 0.0
2017-Oct-16 04:29N 34°43' W 076°40'0 0.0
2017-Oct-16 03:56N 34°43' W 076°40'0 0.0
2017-Oct-16 03:29N 34°43' W 076°40'0 0.0
2017-Oct-16 02:59N 34°43' W 076°40'0 0.0
2017-Oct-16 02:29N 34°43' W 076°40'0 0.0
2017-Oct-16 01:59N 34°43' W 076°40'0 0.0
2017-Oct-16 01:29N 34°43' W 076°40'0 0.0
2017-Oct-16 00:59N 34°43' W 076°40'0 0.0
2017-Oct-16 00:29N 34°43' W 076°40'0 0.0
2017-Oct-15 23:59N 34°43' W 076°40'0 0.0
2017-Oct-15 23:29N 34°43' W 076°40'0 0.0
2017-Oct-15 22:56N 34°43' W 076°40'0 0.0
2017-Oct-15 22:29N 34°43' W 076°40'0 0.0
2017-Oct-15 21:59N 34°43' W 076°40'0 0.0
2017-Oct-15 21:31N 34°43' W 076°40'0 0.2
2017-Oct-15 21:00N 34°43' W 076°40'3 6.5
2017-Oct-15 20:31N 34°40' W 076°40'2 4.0
2017-Oct-15 20:01N 34°39' W 076°38'3 5.3
2017-Oct-15 19:30N 34°38' W 076°35'0 0.5
2017-Oct-15 19:01N 34°38' W 076°35'0 0.6
2017-Oct-15 18:31N 34°38' W 076°35'1 3.0
2017-Oct-15 18:01N 34°38' W 076°36'1 2.9
2017-Oct-15 17:31N 34°39' W 076°38'1 1.5
2017-Oct-15 17:01N 34°39' W 076°39'2 3.4
2017-Oct-15 16:30N 34°38' W 076°38'3 6.7
2017-Oct-15 16:01N 34°35' W 076°36'4 7.2
2017-Oct-15 15:30N 34°31' W 076°34'146 2.9
2017-Oct-13 12:58N 36°57' W 076°20'510.4
2017-Oct-13 12:31N 36°52' W 076°20'2 3.3
2017-Oct-13 11:58N 36°51' W 076°18'0 0.0
2017-Oct-13 11:28N 36°51' W 076°18'0 0.0
2017-Oct-13 10:58N 36°51' W 076°18'0 0.0
2017-Oct-13 10:28N 36°51' W 076°18'0 0.0
2017-Oct-13 09:58N 36°51' W 076°18'0 0.0
2017-Oct-13 09:28N 36°51' W 076°18'0 0.0
2017-Oct-13 08:58N 36°51' W 076°18'0 0.0
2017-Oct-13 08:28N 36°51' W 076°18'0 0.0
2017-Oct-13 07:58N 36°51' W 076°18'0 0.0
2017-Oct-13 07:28N 36°51' W 076°18'0 0.0
2017-Oct-13 06:55N 36°51' W 076°18'0 0.0
2017-Oct-13 06:28N 36°51' W 076°18'0 0.0
2017-Oct-13 05:58N 36°51' W 076°18'0 0.0
2017-Oct-13 05:25N 36°51' W 076°18'0 0.0
2017-Oct-13 04:58N 36°51' W 076°18'0 0.0
2017-Oct-13 04:28N 36°51' W 076°18'0 0.0
2017-Oct-13 03:58N 36°51' W 076°18'0 0.0
2017-Oct-13 03:28N 36°51' W 076°18'0 0.0
2017-Oct-13 02:58N 36°51' W 076°18'0 0.0
2017-Oct-13 02:28N 36°51' W 076°18'0 0.0
2017-Oct-13 01:58N 36°51' W 076°18'0 0.0
2017-Oct-13 01:28N 36°51' W 076°18'0 0.0
2017-Oct-13 00:58N 36°51' W 076°18'0 0.0
2017-Oct-13 00:28N 36°51' W 076°18'0 0.0
2017-Oct-12 23:55N 36°51' W 076°18'0 0.0
2017-Oct-12 23:28N 36°51' W 076°18'0 0.0
2017-Oct-12 22:58N 36°51' W 076°18'0 0.0
2017-Oct-12 22:28N 36°51' W 076°18'0 0.0
2017-Oct-12 21:58N 36°51' W 076°18'0 0.0
2017-Oct-12 21:28N 36°51' W 076°18'0 0.0
2017-Oct-12 20:58N 36°51' W 076°18'0 0.0
2017-Oct-12 20:28N 36°51' W 076°18'0 0.0
2017-Oct-12 19:58N 36°51' W 076°18'0 0.0
2017-Oct-12 19:28N 36°51' W 076°18'0 0.0
2017-Oct-12 18:58N 36°51' W 076°18'0 0.0
2017-Oct-12 18:28N 36°51' W 076°18'0 0.0
2017-Oct-12 17:58N 36°51' W 076°18'0 0.0
2017-Oct-12 17:28N 36°51' W 076°18'0 0.0
2017-Oct-12 16:58N 36°51' W 076°18'0 0.0
2017-Oct-12 16:28N 36°51' W 076°18'0 0.0
2017-Oct-12 15:58N 36°51' W 076°18'0 0.0
2017-Oct-12 15:28N 36°51' W 076°18'0 0.0
2017-Oct-12 14:58N 36°51' W 076°18'0 0.0
2017-Oct-12 14:25N 36°51' W 076°18'0 0.0
2017-Oct-12 13:55N 36°51' W 076°18'0 0.0
2017-Oct-12 13:28N 36°51' W 076°18'0 0.0
2017-Oct-12 12:55N 36°51' W 076°18'0 0.0
2017-Oct-12 12:25N 36°51' W 076°18'0 0.0
2017-Oct-12 12:00N 36°51' W 076°18'1 2.8
2017-Oct-12 11:31N 36°52' W 076°19'  

Dump ship's entire track history